Main page
METAR-TAF:

METAR-TAF

Airports :

Adnan Menderes Airport

Izmir, Turkey

latitude: 38-16N, longitude: 027-09E, elevation: 125 m

Current weather observation

The report was made 33 minutes ago, at 09:50 UTC
Wind 16 kt from the North
Temperature 32°C
Humidity 38%
Pressure 1003 hPa
Visibility 10 km or more
Few clouds at a height of 3000 ft

METAR: LTBJ 180950Z 36016KT 9999 FEW030 32/16 Q1003 NOSIG RMK RWY16 35016KT

Time: 13:23 (10:23 UTC)

Forecast

The report was made 2 hours and 25 minutes ago, at 07:58 UTC
Forecast valid from 18 at 07 UTC to 19 at 06 UTC
Wind 13 kt from the North
Visibility 10 km or more
Scattered clouds at a height of 3000 ft
Becoming
from 18 at 16 UTC to 18 at 18 UTC
Visibility 10 km or more
no clouds below 1500 m and no cumulonimbus
Becoming
from 18 at 21 UTC to 18 at 24 UTC
Wind 2 kt from variable directions

TAF: LTBJ 180758Z 1807/1906 35013KT 9999 SCT030 BECMG 1816/1818 CAVOK BECMG 1821/1824 VRB02KT

Weather observations and forecasts of more than 4000 airports (METAR and TAF reports).

The available stations are represented by yellow and red dots on the map.

Hover mouse over dot to see the name of the station.

Then click to see weather observations and forecasts.

To change the map : click on the green buttons with a black cross to zoom in, on the green button with a dash to zoom out, or on the green arrows for adjacent maps.


METAR-TAF: